createdAt,value
2022-08-22T00:02:24.592Z,18.98
2022-08-22T00:02:46.131Z,19.73
2022-08-22T00:03:00.778Z,19.47
2022-08-22T00:05:07.839Z,18.87
2022-08-22T00:07:52.783Z,18.89
2022-08-22T00:10:31.409Z,18.88
2022-08-22T00:13:05.950Z,19.03
2022-08-22T00:15:44.454Z,19.13
2022-08-22T00:18:41.479Z,19.13
2022-08-22T00:21:36.540Z,19.05
2022-08-22T00:24:17.450Z,18.94
2022-08-22T00:27:07.803Z,18.91
2022-08-22T00:29:39.839Z,18.89
2022-08-22T00:32:10.722Z,18.98
2022-08-22T00:34:43.328Z,18.96
2022-08-22T00:37:20.352Z,18.87
2022-08-22T00:40:26.651Z,18.85
2022-08-22T00:42:56.837Z,18.72
2022-08-22T00:46:24.313Z,18.53
2022-08-22T00:49:25.459Z,18.54
2022-08-22T00:52:14.868Z,18.64
2022-08-22T00:55:00.688Z,18.68
2022-08-22T00:57:30.641Z,18.65
2022-08-22T01:00:14.329Z,18.67
2022-08-22T01:02:56.602Z,18.72
2022-08-22T01:05:23.822Z,18.64
2022-08-22T01:08:18.535Z,18.84
2022-08-22T01:11:15.536Z,18.82
2022-08-22T01:14:04.254Z,18.67
2022-08-22T01:16:49.833Z,18.81
2022-08-22T01:19:29.208Z,18.91
2022-08-22T01:22:21.125Z,18.68
2022-08-22T01:25:25.932Z,18.71
2022-08-22T01:28:16.449Z,18.69
2022-08-22T01:31:08.846Z,18.65
2022-08-22T01:33:35.951Z,18.67
2022-08-22T01:36:29.515Z,18.51
2022-08-22T01:39:09.050Z,18.46
2022-08-22T01:42:00.592Z,18.63
2022-08-22T01:44:55.549Z,18.71
2022-08-22T01:47:56.175Z,18.67
2022-08-22T01:50:49.651Z,18.69
2022-08-22T01:53:25.820Z,18.69
2022-08-22T01:56:07.621Z,18.68
2022-08-22T01:58:42.661Z,18.65
2022-08-22T02:01:24.535Z,18.58
2022-08-22T02:04:18.583Z,18.57
2022-08-22T02:07:17.079Z,18.69
2022-08-22T02:10:05.060Z,18.71
2022-08-22T02:12:41.751Z,18.65
2022-08-22T02:15:21.233Z,18.61
2022-08-22T02:18:06.698Z,18.55
2022-08-22T02:20:55.635Z,18.50
2022-08-22T02:23:43.912Z,18.57
2022-08-22T02:26:41.393Z,18.48
2022-08-22T02:29:14.250Z,18.57
2022-08-22T02:32:04.961Z,18.67
2022-08-22T02:34:56.995Z,18.54
2022-08-22T02:37:39.475Z,18.55
2022-08-22T02:40:10.847Z,18.75
2022-08-22T02:42:59.830Z,18.68
2022-08-22T02:45:35.923Z,18.81
2022-08-22T02:48:34.256Z,18.78
2022-08-22T02:51:10.610Z,18.64
2022-08-22T02:54:00.223Z,18.55
2022-08-22T02:56:31.694Z,18.63
2022-08-22T02:59:13.189Z,18.64
2022-08-22T03:01:43.905Z,18.64
2022-08-22T03:04:25.931Z,18.76
2022-08-22T03:07:14.614Z,18.60
2022-08-22T03:09:49.614Z,18.65
2022-08-22T03:12:24.824Z,18.64
2022-08-22T03:15:00.534Z,18.54
2022-08-22T03:17:38.457Z,18.47
2022-08-22T03:20:35.303Z,18.63
2022-08-22T03:23:13.460Z,18.51
2022-08-22T03:25:52.874Z,18.64
2022-08-22T03:29:03.887Z,18.64
2022-08-22T03:31:32.308Z,18.54
2022-08-22T03:34:27.098Z,18.58
2022-08-22T03:37:20.911Z,18.53
2022-08-22T03:39:51.015Z,18.53
2022-08-22T03:42:30.124Z,18.55
2022-08-22T03:45:21.850Z,18.64
2022-08-22T03:48:22.226Z,18.57
2022-08-22T03:51:18.848Z,18.69
2022-08-22T03:53:45.929Z,18.72
2022-08-22T03:56:37.322Z,18.55
2022-08-22T03:59:37.128Z,18.53
2022-08-22T04:02:51.790Z,18.53
2022-08-22T04:05:43.705Z,18.54
2022-08-22T04:08:16.565Z,18.65
2022-08-22T04:11:12.120Z,18.72
2022-08-22T04:14:01.294Z,18.76
2022-08-22T04:16:50.990Z,18.69
2022-08-22T04:19:56.740Z,18.58
2022-08-22T04:22:33.396Z,18.60
2022-08-22T04:25:23.464Z,18.67
2022-08-22T04:28:13.231Z,18.58
2022-08-22T04:30:56.120Z,18.65
2022-08-22T04:33:30.421Z,18.74
2022-08-22T04:36:19.327Z,18.84
2022-08-22T04:38:52.973Z,18.85
2022-08-22T04:41:24.845Z,18.82
2022-08-22T04:43:58.781Z,18.82
2022-08-22T04:46:50.717Z,18.81
2022-08-22T04:49:29.494Z,18.96
2022-08-22T04:52:08.860Z,19.13
2022-08-22T04:54:58.028Z,19.19
2022-08-22T04:57:42.721Z,19.06
2022-08-22T05:00:11.816Z,19.08
2022-08-22T05:02:44.710Z,19.27
2022-08-22T05:05:23.677Z,19.26
2022-08-22T05:07:58.461Z,19.13
2022-08-22T05:10:33.474Z,18.91
2022-08-22T05:13:09.388Z,18.99
2022-08-22T05:15:40.762Z,19.08
2022-08-22T05:18:16.235Z,19.03
2022-08-22T05:20:49.360Z,19.12
2022-08-22T05:23:21.498Z,19.08
2022-08-22T05:25:51.671Z,19.16
2022-08-22T05:28:31.433Z,19.16
2022-08-22T05:30:59.727Z,19.05
2022-08-22T05:33:41.713Z,19.26
2022-08-22T05:36:25.570Z,19.01
2022-08-22T05:39:14.660Z,18.88
2022-08-22T05:41:42.133Z,18.84
2022-08-22T05:44:28.178Z,19.02
2022-08-22T05:47:08.075Z,18.89
2022-08-22T05:49:45.675Z,18.91
2022-08-22T05:52:33.549Z,19.03
2022-08-22T05:55:17.845Z,18.99
2022-08-22T05:57:50.023Z,18.88
2022-08-22T06:00:25.726Z,19.01
2022-08-22T06:02:55.598Z,19.09
2022-08-22T06:05:28.867Z,19.23
2022-08-22T06:08:20.157Z,19.12
2022-08-22T06:10:53.691Z,19.08
2022-08-22T06:13:24.714Z,19.05
2022-08-22T06:18:58.010Z,19.05
2022-08-22T06:21:29.153Z,18.99
2022-08-22T06:24:03.109Z,19.11
2022-08-22T06:26:39.433Z,19.03
2022-08-22T06:29:08.581Z,19.09
2022-08-22T06:31:46.734Z,19.19
2022-08-22T06:34:17.836Z,19.36
2022-08-22T06:36:49.424Z,19.34
2022-08-22T06:39:29.467Z,19.53
2022-08-22T06:42:15.893Z,19.61
2022-08-22T06:44:52.665Z,19.59
2022-08-22T06:47:28.019Z,19.51
2022-08-22T06:50:02.907Z,19.33
2022-08-22T06:52:34.469Z,19.13
2022-08-22T06:55:09.611Z,19.15
2022-08-22T06:57:45.218Z,19.33
2022-08-22T07:00:15.965Z,19.40
2022-08-22T07:02:52.877Z,19.36
2022-08-22T07:05:24.281Z,19.41
2022-08-22T07:07:52.759Z,19.49
2022-08-22T07:10:22.784Z,19.66
2022-08-22T07:12:54.036Z,19.49
2022-08-22T07:15:32.441Z,19.63
2022-08-22T07:18:02.803Z,19.88
2022-08-22T07:23:35.415Z,19.92
2022-08-22T07:26:10.956Z,19.70
2022-08-22T07:28:51.604Z,19.63
2022-08-22T07:31:46.621Z,19.67
2022-08-22T07:34:28.610Z,19.64
2022-08-22T07:37:03.974Z,19.74
2022-08-22T07:39:38.264Z,19.59
2022-08-22T07:42:11.440Z,19.73
2022-08-22T07:45:10.649Z,19.97
2022-08-22T07:47:54.511Z,20.11
2022-08-22T07:50:27.354Z,20.28
2022-08-22T07:53:01.702Z,20.40
2022-08-22T07:55:29.107Z,20.46
2022-08-22T07:58:01.833Z,20.47
2022-08-22T08:00:32.699Z,20.33
2022-08-22T08:03:06.927Z,20.36
2022-08-22T08:05:36.487Z,20.25
2022-08-22T08:08:12.256Z,20.22
2022-08-22T08:10:42.944Z,20.47
2022-08-22T08:13:20.799Z,20.80
2022-08-22T08:15:50.320Z,21.27
2022-08-22T08:18:22.018Z,21.72
2022-08-22T08:21:00.171Z,21.94
2022-08-22T08:23:31.437Z,21.97
2022-08-22T08:26:09.981Z,22.34
2022-08-22T08:28:45.772Z,21.85
2022-08-22T08:31:22.039Z,22.16
2022-08-22T08:33:53.420Z,22.47
2022-08-22T08:36:37.932Z,22.28
2022-08-22T08:39:14.335Z,22.56
2022-08-22T08:41:53.876Z,22.66
2022-08-22T08:44:39.512Z,22.81
2022-08-22T08:47:34.541Z,22.52
2022-08-22T08:50:11.845Z,22.82
2022-08-22T08:56:10.786Z,22.38
2022-08-22T08:59:03.335Z,22.40
2022-08-22T09:01:54.131Z,21.77
2022-08-22T09:04:56.113Z,21.76
2022-08-22T09:07:35.370Z,22.21
2022-08-22T09:11:12.087Z,22.54
2022-08-22T09:14:11.438Z,22.41
2022-08-22T09:20:22.631Z,22.77
2022-08-22T09:23:37.683Z,22.62
2022-08-22T09:26:17.185Z,22.82
2022-08-22T09:29:35.891Z,22.38
2022-08-22T09:32:30.023Z,22.24
2022-08-22T09:35:12.685Z,21.89
2022-08-22T09:38:18.234Z,21.66
2022-08-22T09:40:51.603Z,21.72
2022-08-22T09:43:24.542Z,21.89
2022-08-22T09:46:02.126Z,22.04
2022-08-22T09:48:45.562Z,21.89
2022-08-22T09:51:38.770Z,21.89
2022-08-22T09:57:33.653Z,21.96
2022-08-22T10:00:22.153Z,22.51
2022-08-22T10:02:52.603Z,22.22
2022-08-22T10:06:13.279Z,22.24
2022-08-22T10:11:46.228Z,22.88
2022-08-22T10:14:50.651Z,23.02
2022-08-22T10:17:30.589Z,22.98
2022-08-22T10:20:10.176Z,23.11
2022-08-22T10:23:02.970Z,23.10
2022-08-22T10:25:42.179Z,23.26
2022-08-22T10:28:15.231Z,23.31
2022-08-22T10:31:20.127Z,23.00
2022-08-22T10:33:47.263Z,22.86
2022-08-22T10:36:19.954Z,22.81
2022-08-22T10:38:53.278Z,23.04
2022-08-22T10:41:36.770Z,22.68
2022-08-22T10:44:17.302Z,22.52
2022-08-22T10:46:47.839Z,22.62
2022-08-22T10:49:29.419Z,22.72
2022-08-22T10:52:16.038Z,22.98
2022-08-22T10:55:17.485Z,22.68
2022-08-22T10:58:13.738Z,22.92
2022-08-22T11:00:58.515Z,23.19
2022-08-22T11:03:28.655Z,23.16
2022-08-22T11:06:01.610Z,23.19
2022-08-22T11:08:52.468Z,23.57
2022-08-22T11:11:23.711Z,23.95
2022-08-22T11:14:09.744Z,23.82
2022-08-22T11:16:55.573Z,23.88
2022-08-22T11:19:31.854Z,23.71
2022-08-22T11:22:33.838Z,23.53
2022-08-22T11:25:38.930Z,23.64
2022-08-22T11:28:25.415Z,23.53
2022-08-22T11:31:09.478Z,23.72
2022-08-22T11:36:56.556Z,23.48
2022-08-22T11:39:33.483Z,23.59
2022-08-22T11:42:14.502Z,23.74
2022-08-22T11:44:54.349Z,23.89
2022-08-22T11:47:26.537Z,23.86
2022-08-22T11:50:34.631Z,23.68
2022-08-22T11:53:11.440Z,23.54
2022-08-22T11:55:42.476Z,23.38
2022-08-22T12:01:34.478Z,23.19
2022-08-22T12:04:12.946Z,23.26
2022-08-22T12:07:15.525Z,23.53
2022-08-22T12:09:56.052Z,23.67
2022-08-22T12:12:32.406Z,23.89
2022-08-22T12:15:15.910Z,23.43
2022-08-22T12:18:14.362Z,23.77
2022-08-22T12:21:18.799Z,23.82
2022-08-22T12:24:11.113Z,23.92
2022-08-22T12:27:28.926Z,24.09
2022-08-22T12:30:14.170Z,24.06
2022-08-22T12:33:09.673Z,24.08
2022-08-22T12:36:18.543Z,24.26
2022-08-22T12:39:01.829Z,24.47
2022-08-22T12:41:37.936Z,24.41
2022-08-22T12:44:24.427Z,24.36
2022-08-22T12:46:55.163Z,24.29
2022-08-22T12:50:00.525Z,24.04
2022-08-22T12:52:40.389Z,24.01
2022-08-22T12:55:28.289Z,23.81
2022-08-22T12:58:18.168Z,23.88
2022-08-22T13:00:48.089Z,24.02
2022-08-22T13:03:37.583Z,24.05
2022-08-22T13:06:21.953Z,24.16
2022-08-22T13:08:50.196Z,24.01
2022-08-22T13:11:23.194Z,23.98
2022-08-22T13:13:58.742Z,23.78
2022-08-22T13:16:37.516Z,23.74
2022-08-22T13:19:16.896Z,23.81
2022-08-22T13:21:48.318Z,23.88
2022-08-22T13:24:38.491Z,23.88
2022-08-22T13:27:14.932Z,23.88
2022-08-22T13:29:57.152Z,23.79
2022-08-22T13:32:37.735Z,23.67
2022-08-22T13:35:09.759Z,23.51
2022-08-22T13:37:45.425Z,23.48
2022-08-22T13:40:29.562Z,23.51
2022-08-22T13:43:11.267Z,23.33
2022-08-22T13:45:42.007Z,23.13
2022-08-22T13:48:13.133Z,23.07
2022-08-22T13:51:04.036Z,22.99
2022-08-22T13:54:01.925Z,23.04
2022-08-22T13:56:52.293Z,22.98
2022-08-22T13:59:50.891Z,23.03
2022-08-22T14:02:34.869Z,23.16
2022-08-22T14:05:22.142Z,23.17
2022-08-22T14:08:03.097Z,23.48
2022-08-22T14:10:35.476Z,23.55
2022-08-22T14:13:48.094Z,23.43
2022-08-22T14:16:24.254Z,23.44
2022-08-22T14:18:58.066Z,23.38
2022-08-22T14:21:40.182Z,23.30
2022-08-22T14:24:25.850Z,23.48
2022-08-22T14:27:06.363Z,23.65
2022-08-22T14:32:54.388Z,23.33
2022-08-22T14:35:37.910Z,23.28
2022-08-22T14:38:17.454Z,23.37
2022-08-22T14:40:47.150Z,23.40
2022-08-22T14:43:35.888Z,23.46
2022-08-22T14:46:12.605Z,23.21
2022-08-22T14:49:18.377Z,23.26
2022-08-22T14:51:59.339Z,23.28
2022-08-22T14:54:29.107Z,23.40
2022-08-22T14:56:57.970Z,23.38
2022-08-22T14:59:30.884Z,23.33
2022-08-22T15:02:13.764Z,23.43
2022-08-22T15:04:49.774Z,23.40
2022-08-22T15:07:34.879Z,23.30
2022-08-22T15:10:26.994Z,23.37
2022-08-22T15:13:03.179Z,23.36
2022-08-22T15:15:49.772Z,23.19
2022-08-22T15:18:27.268Z,23.13
2022-08-22T15:21:10.204Z,23.07
2022-08-22T15:23:44.795Z,23.06
2022-08-22T15:26:22.482Z,23.00
2022-08-22T15:28:57.749Z,22.93
2022-08-22T15:31:25.652Z,22.69
2022-08-22T15:34:06.997Z,22.72
2022-08-22T15:36:56.303Z,22.76
2022-08-22T15:39:34.008Z,22.79
2022-08-22T15:42:05.576Z,22.75
2022-08-22T15:44:40.528Z,22.75
2022-08-22T15:47:31.504Z,22.82
2022-08-22T15:50:09.888Z,22.79
2022-08-22T15:53:13.527Z,22.81
2022-08-22T15:56:03.079Z,22.61
2022-08-22T15:58:37.293Z,22.73
2022-08-22T16:01:18.814Z,22.66
2022-08-22T16:04:14.389Z,22.62
2022-08-22T16:06:49.117Z,22.65
2022-08-22T16:09:49.255Z,22.54
2022-08-22T16:12:31.736Z,22.49
2022-08-22T16:15:01.421Z,22.63
2022-08-22T16:17:28.464Z,22.68
2022-08-22T16:20:19.522Z,22.45
2022-08-22T16:23:07.484Z,22.54
2022-08-22T16:25:47.531Z,22.51
2022-08-22T16:28:41.493Z,22.58
2022-08-22T16:31:27.433Z,22.56
2022-08-22T16:33:59.166Z,22.51
2022-08-22T16:37:03.498Z,22.34
2022-08-22T16:39:43.312Z,22.47
2022-08-22T16:42:13.659Z,22.35
2022-08-22T16:44:55.359Z,22.30
2022-08-22T16:47:36.238Z,22.28
2022-08-22T16:50:30.075Z,22.20
2022-08-22T16:53:06.036Z,22.28
2022-08-22T16:55:35.946Z,22.41
2022-08-22T16:58:44.753Z,22.37
2022-08-22T17:01:42.844Z,22.40
2022-08-22T17:04:12.963Z,22.34
2022-08-22T17:07:04.597Z,22.18
2022-08-22T17:09:50.519Z,22.06
2022-08-22T17:12:23.537Z,22.18
2022-08-22T17:15:02.622Z,22.16
2022-08-22T17:17:59.554Z,22.07
2022-08-22T17:20:44.602Z,22.18
2022-08-22T17:23:39.300Z,22.24
2022-08-22T17:26:19.224Z,22.20
2022-08-22T17:28:56.550Z,22.00
2022-08-22T17:31:55.713Z,22.16
2022-08-22T17:34:41.407Z,22.07
2022-08-22T17:37:36.418Z,22.03
2022-08-22T17:40:17.085Z,22.07
2022-08-22T17:42:59.680Z,22.14
2022-08-22T17:45:38.221Z,22.07
2022-08-22T17:48:26.588Z,22.01
2022-08-22T17:51:28.599Z,22.06
2022-08-22T17:54:17.373Z,21.98
2022-08-22T17:57:05.124Z,21.93
2022-08-22T17:59:47.554Z,22.00
2022-08-22T18:02:27.414Z,21.98
2022-08-22T18:05:35.242Z,21.86
2022-08-22T18:08:38.698Z,21.92
2022-08-22T18:11:40.767Z,22.00
2022-08-22T18:14:30.463Z,21.93
2022-08-22T18:17:00.747Z,22.00
2022-08-22T18:19:36.593Z,22.04
2022-08-22T18:22:09.560Z,21.96
2022-08-22T18:24:49.904Z,21.82
2022-08-22T18:27:34.045Z,21.70
2022-08-22T18:30:08.540Z,21.94
2022-08-22T18:32:54.114Z,22.06
2022-08-22T18:35:28.955Z,22.04
2022-08-22T18:38:19.538Z,21.92
2022-08-22T18:40:54.658Z,21.83
2022-08-22T18:43:36.865Z,21.89
2022-08-22T18:46:27.088Z,21.86
2022-08-22T18:49:14.485Z,21.87
2022-08-22T18:51:42.437Z,21.82
2022-08-22T18:54:11.184Z,21.76
2022-08-22T18:56:49.708Z,21.76
2022-08-22T18:59:29.001Z,21.80
2022-08-22T19:02:02.579Z,21.75
2022-08-22T19:05:12.035Z,21.72
2022-08-22T19:08:39.253Z,21.75
2022-08-22T19:11:35.104Z,21.75
2022-08-22T19:14:19.630Z,21.70
2022-08-22T19:17:15.049Z,21.73
2022-08-22T19:20:16.395Z,21.70
2022-08-22T19:22:44.084Z,21.72
2022-08-22T19:25:19.706Z,21.72
2022-08-22T19:28:07.750Z,21.86
2022-08-22T19:30:42.975Z,21.93
2022-08-22T19:33:19.956Z,21.83
2022-08-22T19:35:55.536Z,21.82
2022-08-22T19:38:53.716Z,21.65
2022-08-22T19:41:44.332Z,21.60
2022-08-22T19:44:17.791Z,21.72
2022-08-22T19:47:02.452Z,21.65
2022-08-22T19:49:35.150Z,21.59
2022-08-22T19:52:34.004Z,21.60
2022-08-22T19:58:32.006Z,21.50
2022-08-22T20:01:18.922Z,21.50
2022-08-22T20:03:53.238Z,21.49
2022-08-22T20:06:40.727Z,21.46
2022-08-22T20:09:29.110Z,21.27
2022-08-22T20:12:28.601Z,21.17
2022-08-22T20:14:56.280Z,21.12
2022-08-22T20:17:26.218Z,21.18
2022-08-22T20:20:17.570Z,20.91
2022-08-22T20:23:21.123Z,21.02
2022-08-22T20:25:52.885Z,21.14
2022-08-22T20:28:38.531Z,21.29
2022-08-22T20:31:27.093Z,21.29
2022-08-22T20:34:01.297Z,21.35
2022-08-22T20:37:15.786Z,21.05
2022-08-22T20:39:58.575Z,20.87
2022-08-22T20:42:28.271Z,20.83
2022-08-22T20:44:56.172Z,20.83
2022-08-22T20:47:26.069Z,20.60
2022-08-22T20:50:07.811Z,20.52
2022-08-22T20:52:38.303Z,20.49
2022-08-22T20:55:07.606Z,20.47
2022-08-22T20:57:43.821Z,20.52
2022-08-22T21:00:14.373Z,20.66
2022-08-22T21:02:48.091Z,20.69
2022-08-22T21:05:17.315Z,20.45
2022-08-22T21:07:47.086Z,20.29
2022-08-22T21:10:41.034Z,20.46
2022-08-22T21:13:29.900Z,20.42
2022-08-22T21:16:10.966Z,20.39
2022-08-22T21:18:45.867Z,20.36
2022-08-22T21:21:18.129Z,20.29
2022-08-22T21:23:48.951Z,20.09
2022-08-22T21:26:20.893Z,20.11
2022-08-22T21:28:56.042Z,20.09
2022-08-22T21:31:26.985Z,19.97
2022-08-22T21:33:55.808Z,20.12
2022-08-22T21:36:27.359Z,20.09
2022-08-22T21:39:03.580Z,20.19
2022-08-22T21:41:41.750Z,20.15
2022-08-22T21:44:27.284Z,20.11
2022-08-22T21:46:55.666Z,20.26
2022-08-22T21:49:26.669Z,20.25
2022-08-22T21:51:53.910Z,20.18
2022-08-22T21:54:35.653Z,20.19
2022-08-22T21:57:08.988Z,20.05
2022-08-22T21:59:59.800Z,20.04
2022-08-22T22:02:37.894Z,19.85
2022-08-22T22:05:11.504Z,19.82
2022-08-22T22:07:41.283Z,19.95
2022-08-22T22:10:10.985Z,19.88
2022-08-22T22:12:40.780Z,19.84
2022-08-22T22:15:13.812Z,19.97
2022-08-22T22:17:40.979Z,19.85
2022-08-22T22:20:08.987Z,19.87
2022-08-22T22:22:37.051Z,19.77
2022-08-22T22:25:39.597Z,19.74
2022-08-22T22:28:05.372Z,19.68
2022-08-22T22:30:32.674Z,19.80
2022-08-22T22:32:59.792Z,19.87
2022-08-22T22:35:27.094Z,19.70
2022-08-22T22:37:55.924Z,19.71
2022-08-22T22:40:24.176Z,19.75
2022-08-22T22:42:51.393Z,19.60
2022-08-22T22:45:18.765Z,19.67
2022-08-22T22:47:45.899Z,19.59
2022-08-22T22:50:13.088Z,19.67
2022-08-22T22:52:40.934Z,19.70
2022-08-22T22:55:09.443Z,19.68
2022-08-22T22:57:39.749Z,19.66
2022-08-22T23:00:12.499Z,19.73
2022-08-22T23:02:40.059Z,19.82
2022-08-22T23:05:08.737Z,19.77
2022-08-22T23:07:38.321Z,19.78
2022-08-22T23:10:07.349Z,19.66
2022-08-22T23:12:36.426Z,19.54
2022-08-22T23:15:06.345Z,19.49
2022-08-22T23:17:34.706Z,19.47
2022-08-22T23:20:02.292Z,19.43
2022-08-22T23:22:30.218Z,19.40
2022-08-22T23:24:57.350Z,19.45
2022-08-22T23:27:24.480Z,19.54
2022-08-22T23:29:52.887Z,19.46
2022-08-22T23:32:20.562Z,19.37
2022-08-22T23:34:48.809Z,19.36
2022-08-22T23:37:19.900Z,19.46
2022-08-22T23:39:48.150Z,19.59
2022-08-22T23:42:15.475Z,19.45
2022-08-22T23:44:45.222Z,19.23
2022-08-22T23:47:14.003Z,19.40
2022-08-22T23:49:42.965Z,19.45
2022-08-22T23:52:11.925Z,19.37
2022-08-22T23:54:39.198Z,19.34
2022-08-22T23:57:11.658Z,19.61
2022-08-22T23:59:46.336Z,19.34
